createdAt,value
2018-03-31T00:01:00.429Z,28.42
2018-03-31T00:02:02.398Z,26.35
2018-03-31T00:03:04.409Z,26.60
2018-03-31T00:04:06.391Z,26.02
2018-03-31T00:05:08.398Z,24.70
2018-03-31T00:06:10.395Z,25.55
2018-03-31T00:07:12.378Z,25.88
2018-03-31T00:08:14.827Z,26.08
2018-03-31T00:09:16.817Z,29.25
2018-03-31T00:10:19.592Z,24.63
2018-03-31T00:11:21.744Z,25.60
2018-03-31T00:12:25.236Z,22.65
2018-03-31T00:13:27.260Z,28.30
2018-03-31T00:14:29.229Z,22.77
2018-03-31T00:15:31.226Z,22.40
2018-03-31T00:16:33.259Z,28.87
2018-03-31T00:17:35.328Z,22.17
2018-03-31T00:18:37.306Z,25.40
2018-03-31T00:19:40.070Z,27.27
2018-03-31T00:20:42.078Z,25.70
2018-03-31T00:21:44.101Z,27.40
2018-03-31T00:22:46.108Z,27.13
2018-03-31T00:23:48.118Z,23.20
2018-03-31T00:24:50.086Z,23.83
2018-03-31T00:25:52.148Z,24.08
2018-03-31T00:26:54.135Z,23.35
2018-03-31T00:27:56.913Z,25.00
2018-03-31T00:28:58.922Z,23.83
2018-03-31T00:30:00.920Z,26.98
2018-03-31T00:31:02.973Z,24.52
2018-03-31T00:32:04.983Z,24.35
2018-03-31T00:33:07.033Z,26.60
2018-03-31T00:34:09.842Z,24.15
2018-03-31T00:35:11.848Z,22.60
2018-03-31T00:36:13.855Z,22.30
2018-03-31T00:37:15.930Z,24.45
2018-03-31T00:38:17.903Z,23.50
2018-03-31T00:39:19.920Z,26.55
2018-03-31T00:40:22.040Z,23.58
2018-03-31T00:41:24.042Z,23.98
2018-03-31T00:42:26.011Z,30.30
2018-03-31T00:43:28.048Z,25.90
2018-03-31T00:44:30.028Z,26.55
2018-03-31T00:45:32.054Z,26.70
2018-03-31T00:46:34.034Z,21.98
2018-03-31T00:47:36.003Z,24.12
2018-03-31T00:48:38.101Z,23.25
2018-03-31T00:49:40.057Z,23.35
2018-03-31T00:50:42.123Z,25.00
2018-03-31T00:51:44.152Z,24.02
2018-03-31T00:52:46.125Z,27.58
2018-03-31T00:53:48.878Z,25.02
2018-03-31T00:54:50.851Z,22.02
2018-03-31T00:55:52.878Z,27.50
2018-03-31T00:56:54.918Z,26.23
2018-03-31T00:57:56.942Z,26.20
2018-03-31T00:58:58.974Z,28.65
2018-03-31T01:00:02.480Z,23.62
2018-03-31T01:01:05.210Z,27.45
2018-03-31T01:02:07.981Z,25.50
2018-03-31T01:03:10.048Z,29.20
2018-03-31T01:04:12.050Z,28.77
2018-03-31T01:05:14.087Z,22.58
2018-03-31T01:06:16.831Z,29.63
2018-03-31T01:07:19.601Z,26.50
2018-03-31T01:08:21.585Z,28.83
2018-03-31T01:09:23.681Z,24.05
2018-03-31T01:10:26.530Z,26.60
2018-03-31T01:11:28.552Z,28.40
2018-03-31T01:12:30.610Z,25.37
2018-03-31T01:13:32.585Z,24.63
2018-03-31T01:14:34.824Z,26.00
2018-03-31T01:15:36.859Z,28.02
2018-03-31T01:16:39.092Z,25.98
2018-03-31T01:17:41.100Z,26.45
2018-03-31T01:18:43.478Z,25.62
2018-03-31T01:19:46.236Z,24.27
2018-03-31T01:20:48.462Z,25.30
2018-03-31T01:21:50.451Z,24.63
2018-03-31T01:22:52.483Z,28.02
2018-03-31T01:23:54.629Z,25.80
2018-03-31T01:24:56.913Z,25.73
2018-03-31T01:25:59.121Z,22.20
2018-03-31T01:27:01.175Z,23.35
2018-03-31T01:28:03.226Z,26.52
2018-03-31T01:29:06.010Z,22.70
2018-03-31T01:30:08.071Z,26.50
2018-03-31T01:31:10.937Z,22.37
2018-03-31T01:32:13.153Z,26.70
2018-03-31T01:33:15.445Z,23.85
2018-03-31T01:34:18.187Z,27.73
2018-03-31T01:35:20.201Z,27.40
2018-03-31T01:36:22.651Z,26.52
2018-03-31T01:37:24.886Z,27.70
2018-03-31T01:38:27.162Z,22.08
2018-03-31T01:39:29.449Z,23.55
2018-03-31T01:40:31.525Z,28.80
2018-03-31T01:41:33.898Z,25.70
2018-03-31T01:42:36.858Z,25.83
2018-03-31T01:43:38.903Z,23.50
2018-03-31T01:44:40.963Z,25.80
2018-03-31T01:45:43.967Z,25.10
2018-03-31T01:46:46.051Z,29.75
2018-03-31T01:47:48.052Z,24.92
2018-03-31T01:48:50.142Z,28.95
2018-03-31T01:49:52.961Z,25.17
2018-03-31T01:50:55.023Z,22.35
2018-03-31T01:51:57.171Z,27.90
2018-03-31T01:52:59.219Z,29.00
2018-03-31T01:54:01.182Z,23.87
2018-03-31T01:55:03.249Z,23.23
2018-03-31T01:56:05.398Z,25.00
2018-03-31T01:57:07.549Z,26.30
2018-03-31T01:58:09.687Z,25.83
2018-03-31T01:59:11.680Z,24.37
2018-03-31T02:00:13.756Z,24.17
2018-03-31T02:01:15.797Z,26.33
2018-03-31T02:02:17.885Z,24.20
2018-03-31T02:03:20.683Z,25.30
2018-03-31T02:04:22.712Z,29.35
2018-03-31T02:05:24.716Z,26.00
2018-03-31T02:06:26.720Z,23.08
2018-03-31T02:07:28.707Z,24.90
2018-03-31T02:08:30.683Z,34.35
2018-03-31T02:09:33.446Z,27.77
2018-03-31T02:10:35.474Z,30.15
2018-03-31T02:11:37.839Z,31.12
2018-03-31T02:12:40.786Z,25.83
2018-03-31T02:13:43.689Z,28.15
2018-03-31T02:14:45.686Z,24.12
2018-03-31T02:15:47.737Z,24.92
2018-03-31T02:16:50.593Z,26.12
2018-03-31T02:17:52.595Z,26.10
2018-03-31T02:18:54.620Z,23.30
2018-03-31T02:19:56.642Z,25.92
2018-03-31T02:20:58.649Z,24.85
2018-03-31T02:22:00.635Z,25.12
2018-03-31T02:23:02.722Z,26.73
2018-03-31T02:24:04.768Z,25.50
2018-03-31T02:25:07.140Z,28.25
2018-03-31T02:26:09.305Z,26.25
2018-03-31T02:27:11.750Z,25.45
2018-03-31T02:28:14.614Z,23.67
2018-03-31T02:29:16.727Z,23.65
2018-03-31T02:30:21.300Z,27.90
2018-03-31T02:31:23.690Z,28.87
2018-03-31T02:32:26.495Z,26.85
2018-03-31T02:33:28.514Z,29.27
2018-03-31T02:34:31.180Z,27.15
2018-03-31T02:35:33.465Z,25.37
2018-03-31T02:36:35.608Z,27.48
2018-03-31T02:37:38.592Z,25.90
2018-03-31T02:38:41.290Z,26.62
2018-03-31T02:39:43.477Z,28.62
2018-03-31T02:40:45.626Z,26.20
2018-03-31T02:41:47.829Z,22.05
2018-03-31T02:42:50.708Z,26.98
2018-03-31T02:43:52.705Z,30.88
2018-03-31T02:44:54.735Z,26.87
2018-03-31T02:45:56.975Z,26.25
2018-03-31T02:46:59.108Z,26.17
2018-03-31T02:48:01.087Z,27.85
2018-03-31T02:49:03.056Z,29.37
2018-03-31T02:50:05.150Z,30.35
2018-03-31T02:51:07.135Z,25.12
2018-03-31T02:52:09.126Z,26.85
2018-03-31T02:53:11.120Z,23.92
2018-03-31T02:54:13.092Z,26.50
2018-03-31T02:55:15.067Z,25.12
2018-03-31T02:56:17.054Z,27.55
2018-03-31T02:57:19.815Z,28.12
2018-03-31T02:58:21.798Z,29.33
2018-03-31T02:59:23.835Z,25.10
2018-03-31T03:00:25.804Z,27.85
2018-03-31T03:01:27.865Z,26.52
2018-03-31T03:02:29.833Z,30.27
2018-03-31T03:03:31.816Z,24.52
2018-03-31T03:04:33.808Z,26.90
2018-03-31T03:05:35.802Z,26.00
2018-03-31T03:06:37.802Z,31.80
2018-03-31T03:07:40.566Z,24.55
2018-03-31T03:08:42.559Z,25.60
2018-03-31T03:09:44.535Z,25.45
2018-03-31T03:10:46.509Z,23.77
2018-03-31T03:11:48.509Z,27.62
2018-03-31T03:12:50.478Z,27.48
2018-03-31T03:13:52.483Z,27.30
2018-03-31T03:14:54.542Z,23.70
2018-03-31T03:15:56.511Z,24.67
2018-03-31T03:16:59.289Z,22.77
2018-03-31T03:18:01.268Z,24.20
2018-03-31T03:19:03.260Z,27.33
2018-03-31T03:20:05.268Z,26.15
2018-03-31T03:21:07.258Z,30.02
2018-03-31T03:22:09.244Z,24.23
2018-03-31T03:23:12.003Z,23.45
2018-03-31T03:24:13.965Z,27.85
2018-03-31T03:25:16.727Z,23.85
2018-03-31T03:26:20.059Z,26.08
2018-03-31T03:27:22.931Z,23.02
2018-03-31T03:28:24.916Z,27.42
2018-03-31T03:29:27.666Z,26.77
2018-03-31T03:30:29.668Z,24.30
2018-03-31T03:31:31.694Z,24.30
2018-03-31T03:32:33.692Z,26.52
2018-03-31T03:33:36.448Z,23.23
2018-03-31T03:34:38.450Z,21.55
2018-03-31T03:35:40.430Z,24.33
2018-03-31T03:36:42.408Z,22.60
2018-03-31T03:37:44.387Z,22.77
2018-03-31T03:38:46.357Z,25.20
2018-03-31T03:39:48.361Z,26.08
2018-03-31T03:40:50.714Z,24.90
2018-03-31T03:41:53.449Z,27.80
2018-03-31T03:42:55.437Z,24.52
2018-03-31T03:43:57.507Z,23.40
2018-03-31T03:44:59.507Z,26.05
2018-03-31T03:46:01.531Z,22.85
2018-03-31T03:47:03.528Z,26.10
2018-03-31T03:48:06.273Z,26.50
2018-03-31T03:49:09.033Z,25.48
2018-03-31T03:50:11.357Z,24.50
2018-03-31T03:51:13.382Z,24.05
2018-03-31T03:52:15.353Z,23.92
2018-03-31T03:53:17.330Z,24.35
2018-03-31T03:54:19.304Z,25.00
2018-03-31T03:55:21.307Z,24.95
2018-03-31T03:56:23.278Z,24.58
2018-03-31T03:57:26.041Z,25.33
2018-03-31T03:58:28.054Z,24.12
2018-03-31T04:00:30.998Z,23.75
2018-03-31T04:01:32.980Z,24.92
2018-03-31T04:02:34.970Z,24.52
2018-03-31T04:03:37.703Z,27.00
2018-03-31T04:04:40.447Z,23.90
2018-03-31T04:05:42.414Z,25.45
2018-03-31T04:06:44.378Z,28.83
2018-03-31T04:07:46.352Z,22.70
2018-03-31T04:08:49.119Z,19.25
2018-03-31T04:09:51.102Z,24.75
2018-03-31T04:10:53.869Z,26.75
2018-03-31T04:11:55.834Z,23.35
2018-03-31T04:12:57.879Z,24.50
2018-03-31T04:14:00.719Z,25.12
2018-03-31T04:15:02.713Z,23.40
2018-03-31T04:16:05.453Z,24.48
2018-03-31T04:17:08.395Z,26.30
2018-03-31T04:18:10.371Z,22.85
2018-03-31T04:19:12.343Z,26.25
2018-03-31T04:20:14.318Z,25.98
2018-03-31T04:21:17.095Z,26.27
2018-03-31T04:22:19.088Z,24.55
2018-03-31T04:23:21.077Z,24.70
2018-03-31T04:24:23.818Z,23.27
2018-03-31T04:25:25.837Z,23.87
2018-03-31T04:26:27.806Z,25.48
2018-03-31T04:27:29.834Z,21.40
2018-03-31T04:28:31.825Z,24.90
2018-03-31T04:29:33.794Z,22.62
2018-03-31T04:30:35.774Z,23.10
2018-03-31T04:31:37.769Z,25.27
2018-03-31T04:32:39.744Z,27.67
2018-03-31T04:33:42.522Z,25.35
2018-03-31T04:34:46.004Z,26.60
2018-03-31T04:35:48.753Z,31.37
2018-03-31T04:36:50.743Z,27.60
2018-03-31T04:37:53.559Z,24.50
2018-03-31T04:38:55.710Z,25.10
2018-03-31T04:39:57.743Z,26.98
2018-03-31T04:40:59.697Z,23.92
2018-03-31T04:42:01.692Z,30.88
2018-03-31T04:43:03.654Z,23.90
2018-03-31T04:44:06.413Z,24.77
2018-03-31T04:45:08.374Z,23.27
2018-03-31T04:46:10.335Z,32.17
2018-03-31T04:47:12.310Z,23.17
2018-03-31T04:48:15.054Z,31.37
2018-03-31T04:49:17.837Z,26.45
2018-03-31T04:50:19.829Z,24.05
2018-03-31T04:51:21.814Z,24.90
2018-03-31T04:52:24.688Z,24.33
2018-03-31T04:53:26.670Z,26.95
2018-03-31T04:54:28.682Z,28.98
2018-03-31T04:55:31.451Z,25.75
2018-03-31T04:56:33.427Z,22.52
2018-03-31T04:57:36.262Z,26.25
2018-03-31T04:58:39.004Z,28.08
2018-03-31T04:59:40.998Z,24.05
2018-03-31T05:01:52.964Z,26.55
2018-03-31T05:02:54.938Z,26.05
2018-03-31T05:03:56.918Z,23.00
2018-03-31T05:04:59.710Z,27.15
2018-03-31T05:06:01.681Z,23.12
2018-03-31T05:07:04.430Z,27.65
2018-03-31T05:08:06.420Z,26.98
2018-03-31T05:09:09.204Z,26.75
2018-03-31T05:10:11.184Z,27.17
2018-03-31T05:11:13.162Z,26.20
2018-03-31T05:12:15.156Z,25.12
2018-03-31T05:13:17.218Z,21.90
2018-03-31T05:14:19.325Z,26.02
2018-03-31T05:15:22.070Z,22.83
2018-03-31T05:16:24.109Z,25.17
2018-03-31T05:17:26.077Z,27.17
2018-03-31T05:18:28.801Z,27.10
2018-03-31T05:19:31.581Z,26.58
2018-03-31T05:20:33.554Z,26.75
2018-03-31T05:21:36.350Z,26.77
2018-03-31T05:22:38.318Z,26.10
2018-03-31T05:23:40.317Z,28.02
2018-03-31T05:24:43.061Z,23.52
2018-03-31T05:25:45.075Z,23.33
2018-03-31T05:26:47.046Z,25.67
2018-03-31T05:27:49.008Z,26.75
2018-03-31T05:28:51.160Z,26.98
2018-03-31T05:29:53.148Z,26.37
2018-03-31T05:30:55.164Z,25.15
2018-03-31T05:32:03.556Z,26.80
2018-03-31T05:33:05.542Z,24.83
2018-03-31T05:34:07.576Z,22.65
2018-03-31T05:35:09.581Z,26.95
2018-03-31T05:36:11.827Z,25.92
2018-03-31T05:37:13.820Z,25.65
2018-03-31T05:38:15.818Z,26.87
2018-03-31T05:39:17.817Z,24.45
2018-03-31T05:40:20.551Z,24.35
2018-03-31T05:41:22.541Z,27.00
2018-03-31T05:42:25.396Z,26.85
2018-03-31T05:43:27.394Z,27.15
2018-03-31T05:44:30.147Z,23.73
2018-03-31T05:45:32.151Z,25.15
2018-03-31T05:46:34.166Z,22.60
2018-03-31T05:47:36.143Z,25.58
2018-03-31T05:48:38.232Z,24.50
2018-03-31T05:49:40.248Z,29.12
2018-03-31T05:50:42.209Z,26.87
2018-03-31T05:51:44.961Z,26.85
2018-03-31T05:52:46.938Z,28.65
2018-03-31T05:53:49.706Z,23.80
2018-03-31T05:54:51.763Z,27.35
2018-03-31T05:55:53.820Z,26.95
2018-03-31T05:56:56.586Z,29.08
2018-03-31T05:57:58.566Z,24.02
2018-03-31T05:59:00.558Z,26.25
2018-03-31T06:00:02.580Z,23.48
2018-03-31T06:01:05.430Z,25.00
2018-03-31T06:02:07.443Z,27.13
2018-03-31T06:03:09.967Z,28.17
2018-03-31T06:04:11.941Z,25.02
2018-03-31T06:05:13.943Z,23.90
2018-03-31T06:06:15.908Z,25.70
2018-03-31T06:07:18.667Z,23.50
2018-03-31T06:08:20.674Z,24.98
2018-03-31T06:09:22.651Z,25.20
2018-03-31T06:10:25.475Z,27.25
2018-03-31T06:11:27.509Z,24.70
2018-03-31T06:12:30.257Z,26.15
2018-03-31T06:13:32.237Z,22.85
2018-03-31T06:14:34.992Z,25.25
2018-03-31T06:15:37.002Z,29.55
2018-03-31T06:16:39.806Z,25.80
2018-03-31T06:17:41.776Z,28.20
2018-03-31T06:18:43.753Z,27.30
2018-03-31T06:19:46.982Z,28.87
2018-03-31T06:20:48.993Z,26.08
2018-03-31T06:21:51.058Z,26.87
2018-03-31T06:22:53.041Z,27.58
2018-03-31T06:23:55.803Z,25.10
2018-03-31T06:24:57.778Z,25.83
2018-03-31T06:26:00.551Z,28.38
2018-03-31T06:27:02.553Z,28.80
2018-03-31T06:28:04.572Z,25.77
2018-03-31T06:29:06.550Z,25.45
2018-03-31T06:30:09.317Z,23.52
2018-03-31T06:31:11.293Z,25.60
2018-03-31T06:32:13.276Z,28.65
2018-03-31T06:33:15.251Z,27.00
2018-03-31T06:34:17.274Z,28.98
2018-03-31T06:35:19.264Z,26.85
2018-03-31T06:36:22.014Z,31.10
2018-03-31T06:37:24.037Z,31.05
2018-03-31T06:38:26.750Z,23.50
2018-03-31T06:39:28.740Z,27.25
2018-03-31T06:40:31.500Z,26.30
2018-03-31T06:41:33.488Z,38.13
2018-03-31T06:42:36.244Z,27.48
2018-03-31T06:43:38.318Z,30.40
2018-03-31T06:44:40.319Z,28.80
2018-03-31T06:45:42.307Z,27.13
2018-03-31T06:46:44.346Z,27.40
2018-03-31T06:47:47.046Z,27.00
2018-03-31T06:48:49.027Z,25.58
2018-03-31T06:49:51.800Z,23.58
2018-03-31T06:50:53.813Z,28.45
2018-03-31T06:51:55.986Z,29.60
2018-03-31T06:52:58.768Z,27.80
2018-03-31T06:54:01.560Z,24.37
2018-03-31T06:55:03.562Z,28.65
2018-03-31T06:56:06.297Z,27.33
2018-03-31T06:57:09.048Z,25.95
2018-03-31T06:58:11.190Z,27.67
2018-03-31T06:59:13.188Z,25.70
2018-03-31T07:00:15.159Z,32.80
2018-03-31T07:01:17.188Z,27.90
2018-03-31T07:02:19.962Z,36.70
2018-03-31T07:03:21.972Z,28.60
2018-03-31T07:04:23.963Z,32.50
2018-03-31T07:05:25.939Z,27.92
2018-03-31T07:06:29.429Z,37.30
2018-03-31T07:07:31.565Z,29.98
2018-03-31T07:08:33.534Z,43.80
2018-03-31T07:09:36.303Z,24.48
2018-03-31T07:10:38.271Z,49.90
2018-03-31T07:11:40.322Z,31.90
2018-03-31T07:12:42.402Z,39.42
2018-03-31T07:13:44.366Z,36.10
2018-03-31T07:14:46.414Z,24.75
2018-03-31T07:15:48.388Z,31.60
2018-03-31T07:16:50.362Z,28.27
2018-03-31T07:17:53.170Z,28.95
2018-03-31T07:18:55.156Z,27.05
2018-03-31T07:19:57.144Z,28.08
2018-03-31T07:20:59.221Z,27.70
2018-03-31T07:22:01.212Z,27.90
2018-03-31T07:23:03.200Z,26.08
2018-03-31T07:24:05.189Z,26.00
2018-03-31T07:25:07.947Z,29.52
2018-03-31T07:26:09.932Z,26.37
2018-03-31T07:27:12.669Z,38.90
2018-03-31T07:28:15.405Z,28.42
2018-03-31T07:29:17.404Z,28.02
2018-03-31T07:30:19.710Z,28.67
2018-03-31T07:31:21.910Z,27.08
2018-03-31T07:32:23.953Z,28.77
2018-03-31T07:33:25.939Z,27.73
2018-03-31T07:34:27.928Z,30.15
2018-03-31T07:35:29.943Z,30.70
2018-03-31T07:36:31.937Z,30.45
2018-03-31T07:37:33.950Z,27.75
2018-03-31T07:38:35.904Z,29.33
2018-03-31T07:39:37.890Z,35.80
2018-03-31T07:40:39.954Z,31.90
2018-03-31T07:41:41.910Z,28.17
2018-03-31T07:42:43.908Z,26.95
2018-03-31T07:43:45.910Z,37.53
2018-03-31T07:44:48.671Z,30.15
2018-03-31T07:45:50.664Z,33.95
2018-03-31T07:46:52.741Z,29.85
2018-03-31T07:47:54.792Z,29.40
2018-03-31T07:48:57.531Z,26.70
2018-03-31T07:49:59.508Z,36.90
2018-03-31T07:51:03.006Z,27.60
2018-03-31T07:52:05.131Z,28.60
2018-03-31T07:53:07.102Z,27.45
2018-03-31T07:54:09.189Z,26.50
2018-03-31T07:55:11.188Z,28.77
2018-03-31T07:56:13.293Z,28.42
2018-03-31T07:57:15.317Z,29.65
2018-03-31T07:58:17.324Z,32.40
2018-03-31T07:59:19.325Z,32.53
2018-03-31T08:00:21.389Z,39.22
2018-03-31T08:01:23.355Z,29.40
2018-03-31T08:02:25.357Z,31.75
2018-03-31T08:03:27.398Z,29.33
2018-03-31T08:04:29.405Z,32.47
2018-03-31T08:05:32.207Z,34.42
2018-03-31T08:06:34.946Z,47.17
2018-03-31T08:07:36.938Z,28.90
2018-03-31T08:08:40.502Z,43.30
2018-03-31T08:09:43.238Z,30.10
2018-03-31T08:10:45.235Z,30.30
2018-03-31T08:11:47.213Z,30.10
2018-03-31T08:12:49.371Z,25.83
2018-03-31T08:13:52.159Z,29.95
2018-03-31T08:14:54.149Z,28.30
2018-03-31T08:15:56.137Z,28.27
2018-03-31T08:16:58.990Z,29.92
2018-03-31T08:18:01.057Z,35.08
2018-03-31T08:19:03.052Z,29.77
2018-03-31T08:20:05.062Z,28.05
2018-03-31T08:21:07.039Z,29.48
2018-03-31T08:22:09.057Z,41.60
2018-03-31T08:23:11.570Z,27.55
2018-03-31T08:24:14.314Z,41.75
2018-03-31T08:25:16.341Z,34.90
2018-03-31T08:26:18.314Z,29.87
2018-03-31T08:27:21.226Z,34.25
2018-03-31T08:28:23.191Z,46.05
2018-03-31T08:29:25.176Z,34.22
2018-03-31T08:30:27.162Z,38.42
2018-03-31T08:31:29.172Z,49.33
2018-03-31T08:32:31.170Z,37.70
2018-03-31T08:33:33.122Z,31.55
2018-03-31T08:35:43.652Z,32.47
2018-03-31T08:36:45.755Z,31.92
2018-03-31T08:37:47.762Z,28.17
2018-03-31T08:38:49.743Z,29.63
2018-03-31T08:39:51.722Z,30.25
2018-03-31T08:40:53.715Z,26.85
2018-03-31T08:41:55.695Z,31.62
2018-03-31T08:42:58.450Z,32.00
2018-03-31T08:44:00.479Z,29.90
2018-03-31T08:45:02.519Z,29.08
2018-03-31T08:46:04.546Z,32.30
2018-03-31T08:47:06.635Z,37.70
2018-03-31T08:48:08.498Z,32.50
2018-03-31T08:49:11.251Z,33.30
2018-03-31T08:50:13.922Z,35.70
2018-03-31T08:51:15.926Z,36.65
2018-03-31T08:52:18.014Z,34.83
2018-03-31T08:53:20.209Z,31.80
2018-03-31T08:54:22.216Z,33.13
2018-03-31T08:55:24.980Z,36.10
2018-03-31T08:56:27.120Z,37.67
2018-03-31T08:57:29.202Z,37.63
2018-03-31T08:58:31.245Z,34.33
2018-03-31T08:59:33.243Z,35.40
2018-03-31T09:00:35.249Z,33.53
2018-03-31T09:01:37.275Z,30.60
2018-03-31T09:02:39.292Z,32.40
2018-03-31T09:03:41.302Z,33.42
2018-03-31T09:04:43.361Z,34.47
2018-03-31T09:05:45.335Z,32.22
2018-03-31T09:06:48.645Z,35.13
2018-03-31T09:07:51.555Z,39.75
2018-03-31T09:08:55.119Z,37.13
2018-03-31T09:09:57.094Z,35.67
2018-03-31T09:10:59.080Z,34.35
2018-03-31T09:12:01.072Z,35.20
2018-03-31T09:13:03.846Z,36.72
2018-03-31T09:14:05.854Z,34.33
2018-03-31T09:15:07.864Z,38.83
2018-03-31T09:16:09.867Z,34.88
2018-03-31T09:17:12.637Z,39.83
2018-03-31T09:18:14.611Z,36.97
2018-03-31T09:19:16.617Z,37.05
2018-03-31T09:20:18.630Z,41.95
2018-03-31T09:21:20.615Z,36.67
2018-03-31T09:22:22.611Z,41.17
2018-03-31T09:23:24.577Z,41.63
2018-03-31T09:24:26.599Z,36.85
2018-03-31T09:25:28.591Z,36.47
2018-03-31T09:26:31.357Z,41.75
2018-03-31T09:27:33.353Z,43.45
2018-03-31T09:28:35.329Z,40.30
2018-03-31T09:29:37.312Z,38.13
2018-03-31T09:30:39.314Z,40.30
2018-03-31T09:31:41.318Z,39.50
2018-03-31T09:32:43.291Z,38.65
2018-03-31T09:33:46.066Z,43.33
2018-03-31T09:34:48.037Z,43.25
2018-03-31T09:35:50.901Z,43.30
2018-03-31T09:36:52.909Z,46.15
2018-03-31T09:37:54.896Z,45.90
2018-03-31T09:38:57.075Z,44.53
2018-03-31T09:39:59.124Z,47.20
2018-03-31T09:41:01.079Z,42.50
2018-03-31T09:42:03.055Z,44.50
2018-03-31T09:43:05.056Z,41.22
2018-03-31T09:44:07.060Z,40.00
2018-03-31T09:45:09.856Z,45.63
2018-03-31T09:46:11.838Z,41.78
2018-03-31T09:47:14.579Z,45.08
2018-03-31T09:48:17.313Z,40.63
2018-03-31T09:49:20.104Z,41.53
2018-03-31T09:50:22.065Z,43.15
2018-03-31T09:51:24.066Z,42.25
2018-03-31T09:52:26.821Z,44.70
2018-03-31T09:53:28.818Z,42.05
2018-03-31T09:54:30.810Z,46.45
2018-03-31T09:55:33.565Z,44.78
2018-03-31T09:56:35.560Z,44.40
2018-03-31T09:57:38.338Z,46.03
2018-03-31T09:58:40.321Z,48.80
2018-03-31T09:59:42.301Z,51.10
2018-03-31T10:00:44.279Z,41.97
2018-03-31T10:01:46.358Z,46.25
2018-03-31T10:02:49.166Z,42.42
2018-03-31T10:03:51.161Z,46.47
2018-03-31T10:04:53.146Z,47.65
2018-03-31T10:05:55.120Z,46.60
2018-03-31T10:06:57.870Z,47.25
2018-03-31T10:07:59.869Z,46.58
2018-03-31T10:09:02.616Z,44.88
2018-03-31T10:10:05.525Z,47.80
2018-03-31T10:11:07.763Z,44.85
2018-03-31T10:12:09.866Z,47.08
2018-03-31T10:13:12.817Z,46.15
2018-03-31T10:14:14.847Z,45.33
2018-03-31T10:15:16.830Z,45.38
2018-03-31T10:16:19.590Z,43.50
2018-03-31T10:17:21.572Z,43.92
2018-03-31T10:18:23.592Z,42.97
2018-03-31T10:19:27.361Z,43.85
2018-03-31T10:20:29.348Z,42.72
2018-03-31T10:21:31.331Z,39.15
2018-03-31T10:22:33.351Z,38.25
2018-03-31T10:23:36.126Z,38.03
2018-03-31T10:24:38.340Z,39.58
2018-03-31T10:25:40.353Z,45.70
2018-03-31T10:26:43.091Z,39.97
2018-03-31T10:27:45.840Z,43.92
2018-03-31T10:28:47.881Z,42.38
2018-03-31T10:29:49.876Z,41.20
2018-03-31T10:30:51.864Z,39.60
2018-03-31T10:31:53.863Z,37.28
2018-03-31T10:32:55.918Z,42.05
2018-03-31T10:33:57.900Z,38.72
2018-03-31T10:35:00.677Z,42.10
2018-03-31T10:36:02.719Z,38.22
2018-03-31T10:37:04.790Z,40.40
2018-03-31T10:38:06.782Z,42.08
2018-03-31T10:39:09.542Z,40.33
2018-03-31T10:40:11.536Z,39.13
2018-03-31T10:41:13.590Z,40.03
2018-03-31T10:42:15.663Z,39.05
2018-03-31T10:43:18.526Z,39.95
2018-03-31T10:44:20.633Z,36.38
2018-03-31T10:45:22.697Z,42.58
2018-03-31T10:46:24.745Z,36.83
2018-03-31T10:47:27.655Z,43.87
2018-03-31T10:48:29.633Z,40.38
2018-03-31T10:49:31.660Z,37.33
2018-03-31T10:50:33.742Z,40.60
2018-03-31T10:51:35.754Z,37.75
2018-03-31T10:52:37.749Z,39.50
2018-03-31T10:53:40.520Z,39.88
2018-03-31T10:54:42.542Z,39.10
2018-03-31T10:55:44.572Z,43.03
2018-03-31T10:56:46.638Z,39.03
2018-03-31T10:57:48.663Z,41.63
2018-03-31T10:58:50.757Z,38.95
2018-03-31T10:59:52.809Z,42.00
2018-03-31T11:00:55.625Z,40.25
2018-03-31T11:01:57.627Z,35.50
2018-03-31T11:02:59.615Z,43.45
2018-03-31T11:04:01.694Z,40.05
2018-03-31T11:05:03.785Z,34.47
2018-03-31T11:06:05.857Z,36.13
2018-03-31T11:07:08.646Z,38.97
2018-03-31T11:08:10.651Z,40.90
2018-03-31T11:09:12.662Z,38.25
2018-03-31T11:10:14.693Z,39.67
2018-03-31T11:11:16.657Z,39.80
2018-03-31T11:12:19.449Z,40.42
2018-03-31T11:13:21.442Z,39.70
2018-03-31T11:14:23.460Z,38.20
2018-03-31T11:15:25.507Z,39.40
2018-03-31T11:16:28.979Z,37.88
2018-03-31T11:17:31.820Z,38.60
2018-03-31T11:18:33.862Z,37.10
2018-03-31T11:19:35.937Z,39.60
2018-03-31T11:20:37.944Z,38.15
2018-03-31T11:21:40.043Z,40.50
2018-03-31T11:22:42.078Z,37.28
2018-03-31T11:23:44.831Z,37.17
2018-03-31T11:24:46.864Z,39.30
2018-03-31T11:25:48.916Z,44.72
2018-03-31T11:26:50.889Z,42.45
2018-03-31T11:27:52.896Z,43.78
2018-03-31T11:28:54.895Z,43.55
2018-03-31T11:29:57.754Z,42.00
2018-03-31T11:30:59.758Z,59.47
2018-03-31T11:32:01.740Z,39.42
2018-03-31T11:33:03.708Z,39.92
2018-03-31T11:34:05.701Z,42.50
2018-03-31T11:35:07.699Z,38.08
2018-03-31T11:36:10.479Z,37.13
2018-03-31T11:37:12.470Z,44.45
2018-03-31T11:38:14.505Z,39.33
2018-03-31T11:39:16.533Z,37.90
2018-03-31T11:40:18.529Z,39.05
2018-03-31T11:41:20.894Z,39.05
2018-03-31T11:42:22.993Z,38.05
2018-03-31T11:43:24.963Z,36.05
2018-03-31T11:44:27.072Z,37.28
2018-03-31T11:45:29.115Z,43.87
2018-03-31T11:46:31.141Z,40.95
2018-03-31T11:47:33.138Z,38.13
2018-03-31T11:48:35.164Z,38.35
2018-03-31T11:49:37.215Z,37.60
2018-03-31T11:50:39.182Z,39.97
2018-03-31T11:51:41.262Z,37.03
2018-03-31T11:52:44.007Z,40.20
2018-03-31T11:53:46.150Z,41.05
2018-03-31T11:54:48.149Z,38.67
2018-03-31T11:55:50.869Z,39.55
2018-03-31T11:56:52.953Z,41.92
2018-03-31T11:57:54.954Z,40.70
2018-03-31T11:58:56.938Z,39.92
2018-03-31T11:59:58.914Z,35.03
2018-03-31T12:01:01.036Z,37.08
2018-03-31T12:02:03.061Z,40.40
2018-03-31T12:03:05.140Z,39.15
2018-03-31T12:04:07.129Z,37.47
2018-03-31T12:05:09.167Z,40.88
2018-03-31T12:06:11.947Z,39.67
2018-03-31T12:07:13.959Z,41.08
2018-03-31T12:08:15.994Z,35.63
2018-03-31T12:09:17.964Z,41.25
2018-03-31T12:10:19.949Z,41.65
2018-03-31T12:11:21.932Z,43.28
2018-03-31T12:12:23.959Z,38.70
2018-03-31T12:13:26.031Z,39.97
2018-03-31T12:14:28.048Z,41.08
2018-03-31T12:15:30.045Z,40.75
2018-03-31T12:16:32.831Z,37.38
2018-03-31T12:17:34.877Z,42.55
2018-03-31T12:18:37.635Z,38.22
2018-03-31T12:19:39.662Z,39.83
2018-03-31T12:20:41.678Z,41.83
2018-03-31T12:21:43.688Z,40.83
2018-03-31T12:22:45.743Z,38.45
2018-03-31T12:23:47.869Z,36.83
2018-03-31T12:24:49.894Z,38.63
2018-03-31T12:25:52.671Z,40.20
2018-03-31T12:26:54.682Z,40.47
2018-03-31T12:27:56.671Z,34.55
2018-03-31T12:28:59.437Z,40.95
2018-03-31T12:30:01.456Z,40.50
2018-03-31T12:31:03.589Z,40.63
2018-03-31T12:32:05.578Z,38.17
2018-03-31T12:33:07.681Z,36.58
2018-03-31T12:34:09.664Z,39.10
2018-03-31T12:35:12.402Z,37.47
2018-03-31T12:36:15.181Z,35.25
2018-03-31T12:37:17.159Z,42.05
2018-03-31T12:38:19.137Z,42.62
2018-03-31T12:39:21.157Z,36.85
2018-03-31T12:40:23.155Z,39.38
2018-03-31T12:41:27.006Z,39.95
2018-03-31T12:42:29.008Z,38.83
2018-03-31T12:43:31.007Z,39.08
2018-03-31T12:44:33.017Z,37.70
2018-03-31T12:45:35.028Z,39.38
2018-03-31T12:46:36.997Z,37.25
2018-03-31T12:47:39.012Z,40.55
2018-03-31T12:48:41.032Z,38.42
2018-03-31T12:49:43.781Z,40.78
2018-03-31T12:50:45.794Z,42.13
2018-03-31T12:51:47.803Z,61.28
2018-03-31T12:52:49.870Z,44.40
2018-03-31T12:53:51.944Z,40.85
2018-03-31T12:54:53.923Z,65.53
2018-03-31T12:55:55.903Z,38.97
2018-03-31T12:56:57.959Z,37.67
2018-03-31T12:58:01.459Z,36.05
2018-03-31T12:59:03.466Z,42.83
2018-03-31T13:00:05.560Z,39.72
2018-03-31T13:01:07.570Z,47.40
2018-03-31T13:02:09.595Z,40.55
2018-03-31T13:03:11.682Z,43.63
2018-03-31T13:04:13.723Z,38.22
2018-03-31T13:05:15.721Z,39.15
2018-03-31T13:06:18.707Z,40.55
2018-03-31T13:07:20.718Z,40.28
2018-03-31T13:08:22.712Z,38.75
2018-03-31T13:09:25.190Z,39.45
2018-03-31T13:10:28.688Z,37.42
2018-03-31T13:11:30.725Z,41.88
2018-03-31T13:12:32.781Z,38.83
2018-03-31T13:13:35.565Z,40.90
2018-03-31T13:14:37.670Z,40.20
2018-03-31T13:15:40.068Z,41.28
2018-03-31T13:16:42.811Z,40.70
2018-03-31T13:17:44.881Z,39.45
2018-03-31T13:18:46.902Z,37.53
2018-03-31T13:19:48.908Z,42.80
2018-03-31T13:20:50.880Z,45.17
2018-03-31T13:21:53.211Z,42.00
2018-03-31T13:22:55.266Z,44.30
2018-03-31T13:23:57.275Z,43.63
2018-03-31T13:25:00.165Z,40.38